createdAt,value
2022-07-26T00:39:27.142Z,1007.91
2022-07-26T00:40:26.717Z,1007.94
2022-07-26T00:41:26.687Z,1007.93
2022-07-26T00:42:30.517Z,1007.93
2022-07-26T00:43:27.038Z,1007.89
2022-07-26T00:44:26.601Z,1007.90
2022-07-26T00:45:26.514Z,1007.91
2022-07-26T00:46:27.002Z,1007.90
2022-07-26T00:47:26.476Z,1007.88
2022-07-26T00:48:26.566Z,1007.86
2022-07-26T00:49:27.268Z,1007.84
2022-07-26T00:50:27.427Z,1007.86
2022-07-26T00:51:26.620Z,1007.81
2022-07-26T00:52:26.409Z,1007.88
2022-07-26T00:53:26.404Z,1007.84
2022-07-26T00:54:26.399Z,1007.81
2022-07-26T00:55:26.338Z,1007.86
2022-07-26T00:56:26.738Z,1007.82
2022-07-26T00:57:30.578Z,1007.86
2022-07-26T00:58:26.358Z,1007.83
2022-07-26T00:59:27.566Z,1007.84
2022-07-26T01:00:28.485Z,1007.86
2022-07-26T01:01:26.338Z,1007.88
2022-07-26T01:02:26.386Z,1007.87
2022-07-26T01:03:29.277Z,1007.88
2022-07-26T01:04:27.301Z,1007.89
2022-07-26T01:05:26.231Z,1007.87
2022-07-26T01:06:27.505Z,1007.90
2022-07-26T01:07:26.222Z,1007.93
2022-07-26T01:08:26.251Z,1007.98
2022-07-26T01:09:26.152Z,1007.98
2022-07-26T01:10:26.284Z,1007.99
2022-07-26T01:12:53.487Z,1008.01
2022-07-26T01:13:26.082Z,1008.06
2022-07-26T01:13:59.450Z,1008.05
2022-07-26T01:14:58.616Z,1008.01
2022-07-26T01:15:58.194Z,1007.96
2022-07-26T01:16:58.179Z,1007.99
2022-07-26T01:17:58.276Z,1007.98
2022-07-26T01:18:58.224Z,1007.94
2022-07-26T01:19:58.138Z,1007.91
2022-07-26T01:20:58.308Z,1007.87
2022-07-26T01:21:58.121Z,1007.87
2022-07-26T01:22:58.109Z,1007.83
2022-07-26T01:23:58.144Z,1007.82
2022-07-26T01:24:58.251Z,1007.84
2022-07-26T01:25:58.001Z,1007.84
2022-07-26T01:26:58.082Z,1007.83
2022-07-26T01:27:58.055Z,1007.89
2022-07-26T01:28:58.063Z,1007.81
2022-07-26T01:29:58.790Z,1007.82
2022-07-26T01:30:57.999Z,1007.81
2022-07-26T01:31:58.019Z,1007.81
2022-07-26T01:32:57.899Z,1007.81
2022-07-26T01:33:57.912Z,1007.85
2022-07-26T01:34:57.893Z,1007.76
2022-07-26T01:35:57.993Z,1007.80
2022-07-26T01:36:57.844Z,1007.81
2022-07-26T01:37:57.869Z,1007.78
2022-07-26T01:38:57.812Z,1007.84
2022-07-26T01:39:57.803Z,1007.80
2022-07-26T01:40:57.792Z,1007.85
2022-07-26T01:41:57.754Z,1007.84
2022-07-26T01:42:57.774Z,1007.87
2022-07-26T01:43:57.803Z,1007.86
2022-07-26T01:44:57.821Z,1007.85
2022-07-26T01:45:57.746Z,1007.86
2022-07-26T01:46:57.757Z,1007.80
2022-07-26T01:47:57.678Z,1007.79
2022-07-26T01:48:57.778Z,1007.82
2022-07-26T01:49:57.639Z,1007.85
2022-07-26T01:50:57.657Z,1007.84
2022-07-26T01:51:57.698Z,1007.78
2022-07-26T01:52:57.638Z,1007.83
2022-07-26T01:53:57.620Z,1007.82
2022-07-26T01:54:57.745Z,1007.83
2022-07-26T01:55:57.767Z,1007.85
2022-07-26T01:56:57.598Z,1007.84
2022-07-26T01:57:57.599Z,1007.82
2022-07-26T01:58:57.540Z,1007.84
2022-07-26T01:59:57.550Z,1007.83
2022-07-26T02:00:57.500Z,1007.83
2022-07-26T02:01:57.616Z,1007.86
2022-07-26T02:02:57.636Z,1007.91
2022-07-26T02:03:57.469Z,1007.87
2022-07-26T02:04:58.625Z,1007.82
2022-07-26T02:05:57.473Z,1007.83
2022-07-26T02:06:57.405Z,1007.84
2022-07-26T02:07:57.402Z,1007.86
2022-07-26T02:08:57.372Z,1007.89
2022-07-26T02:09:57.411Z,1007.88
2022-07-26T02:10:57.379Z,1007.89
2022-07-26T02:11:57.323Z,1007.91
2022-07-26T02:12:57.327Z,1007.94
2022-07-26T02:13:57.328Z,1007.89
2022-07-26T02:14:57.323Z,1007.84
2022-07-26T02:15:57.465Z,1007.87
2022-07-26T02:16:57.254Z,1007.87
2022-07-26T02:17:57.256Z,1007.87
2022-07-26T02:18:57.244Z,1007.84
2022-07-26T02:19:57.384Z,1007.82
2022-07-26T02:20:57.246Z,1007.82
2022-07-26T02:21:57.182Z,1007.83
2022-07-26T02:22:57.165Z,1007.85
2022-07-26T02:23:57.194Z,1007.89
2022-07-26T02:24:59.529Z,1007.89
2022-07-26T02:25:58.143Z,1007.93
2022-07-26T02:26:57.172Z,1007.97
2022-07-26T02:27:57.116Z,1007.96
2022-07-26T02:28:57.088Z,1007.95
2022-07-26T02:29:57.151Z,1007.96
2022-07-26T02:30:57.098Z,1007.94
2022-07-26T02:31:57.125Z,1007.91
2022-07-26T02:32:57.038Z,1007.91
2022-07-26T02:33:57.092Z,1007.85
2022-07-26T02:34:57.074Z,1007.91
2022-07-26T02:35:56.986Z,1007.87
2022-07-26T02:36:56.996Z,1007.94
2022-07-26T02:37:56.969Z,1007.90
2022-07-26T02:38:56.990Z,1007.91
2022-07-26T02:39:56.989Z,1007.92
2022-07-26T02:40:56.911Z,1007.93
2022-07-26T02:41:56.911Z,1007.89
2022-07-26T02:42:56.915Z,1007.90
2022-07-26T02:43:56.924Z,1007.87
2022-07-26T02:44:56.874Z,1007.95
2022-07-26T02:46:01.922Z,1007.95
2022-07-26T02:46:57.911Z,1007.98
2022-07-26T02:47:56.819Z,1008.00
2022-07-26T02:48:56.930Z,1008.00
2022-07-26T02:49:56.816Z,1007.98
2022-07-26T02:50:56.766Z,1008.01
2022-07-26T02:51:56.795Z,1008.01
2022-07-26T02:52:56.842Z,1008.00
2022-07-26T02:53:56.784Z,1007.98
2022-07-26T02:54:56.765Z,1008.07
2022-07-26T02:55:56.702Z,1008.03
2022-07-26T02:56:56.706Z,1008.05
2022-07-26T02:57:56.704Z,1008.07
2022-07-26T02:58:56.657Z,1008.06
2022-07-26T02:59:56.676Z,1008.05
2022-07-26T03:00:56.645Z,1008.10
2022-07-26T03:01:56.645Z,1008.13
2022-07-26T03:02:56.708Z,1008.14
2022-07-26T03:03:56.706Z,1008.15
2022-07-26T03:04:56.606Z,1008.13
2022-07-26T03:05:56.716Z,1008.14
2022-07-26T03:06:56.569Z,1008.11
2022-07-26T03:07:56.524Z,1008.12
2022-07-26T03:08:56.622Z,1008.10
2022-07-26T03:09:56.566Z,1008.13
2022-07-26T03:10:56.477Z,1008.13
2022-07-26T03:11:56.472Z,1008.11
2022-07-26T03:12:56.489Z,1008.10
2022-07-26T03:13:56.468Z,1008.12
2022-07-26T03:14:56.468Z,1008.07
2022-07-26T03:15:56.555Z,1008.09
2022-07-26T03:16:56.674Z,1008.13
2022-07-26T03:17:56.390Z,1008.12
2022-07-26T03:18:56.409Z,1008.12
2022-07-26T03:19:56.389Z,1008.12
2022-07-26T03:20:56.461Z,1008.15
2022-07-26T03:21:56.360Z,1008.14
2022-07-26T03:22:56.312Z,1008.12
2022-07-26T03:23:56.373Z,1008.13
2022-07-26T03:24:56.402Z,1008.16
2022-07-26T03:25:56.326Z,1008.20
2022-07-26T03:26:56.264Z,1008.18
2022-07-26T03:27:56.308Z,1008.19
2022-07-26T03:28:56.263Z,1008.16
2022-07-26T03:29:56.232Z,1008.16
2022-07-26T03:30:56.359Z,1008.18
2022-07-26T03:31:56.263Z,1008.21
2022-07-26T03:32:56.181Z,1008.15
2022-07-26T03:34:01.287Z,1008.14
2022-07-26T03:34:57.202Z,1008.17
2022-07-26T03:35:56.166Z,1008.14
2022-07-26T03:36:56.213Z,1008.12
2022-07-26T03:37:56.158Z,1008.13
2022-07-26T03:38:56.188Z,1008.15
2022-07-26T03:39:56.125Z,1008.19
2022-07-26T03:40:56.146Z,1008.17
2022-07-26T03:41:56.057Z,1008.18
2022-07-26T03:42:56.097Z,1008.20
2022-07-26T03:43:56.225Z,1008.17
2022-07-26T03:44:56.026Z,1008.22
2022-07-26T03:45:56.057Z,1008.21
2022-07-26T03:46:56.039Z,1008.22
2022-07-26T03:47:56.080Z,1008.19
2022-07-26T03:48:56.281Z,1008.22
2022-07-26T03:49:56.081Z,1008.22
2022-07-26T03:50:55.949Z,1008.17
2022-07-26T03:51:56.035Z,1008.19
2022-07-26T03:52:56.029Z,1008.16
2022-07-26T03:53:55.978Z,1008.20
2022-07-26T03:54:55.949Z,1008.22
2022-07-26T03:55:55.958Z,1008.17
2022-07-26T03:56:55.940Z,1008.19
2022-07-26T03:57:55.908Z,1008.19
2022-07-26T03:58:55.859Z,1008.26
2022-07-26T03:59:56.036Z,1008.29
2022-07-26T04:00:55.860Z,1008.29
2022-07-26T04:01:55.886Z,1008.24
2022-07-26T04:02:55.830Z,1008.28
2022-07-26T04:03:55.824Z,1008.36
2022-07-26T04:04:55.881Z,1008.31
2022-07-26T04:05:56.063Z,1008.33
2022-07-26T04:06:55.772Z,1008.35
2022-07-26T04:07:55.900Z,1008.34
2022-07-26T04:08:55.727Z,1008.33
2022-07-26T04:09:55.771Z,1008.36
2022-07-26T04:10:55.686Z,1008.35
2022-07-26T04:11:55.729Z,1008.32
2022-07-26T04:12:55.766Z,1008.32
2022-07-26T04:13:55.623Z,1008.36
2022-07-26T04:14:55.654Z,1008.32
2022-07-26T04:15:55.742Z,1008.30
2022-07-26T04:16:55.730Z,1008.36
2022-07-26T04:17:55.576Z,1008.37
2022-07-26T04:18:55.596Z,1008.34
2022-07-26T04:19:55.590Z,1008.31
2022-07-26T04:20:55.565Z,1008.36
2022-07-26T04:21:55.616Z,1008.37
2022-07-26T04:22:55.529Z,1008.36
2022-07-26T04:23:55.488Z,1008.34
2022-07-26T04:24:55.537Z,1008.37
2022-07-26T04:25:55.598Z,1008.38
2022-07-26T04:26:55.478Z,1008.37
2022-07-26T04:27:55.651Z,1008.40
2022-07-26T04:28:55.509Z,1008.39
2022-07-26T04:29:55.578Z,1008.42
2022-07-26T04:30:56.666Z,1008.42
2022-07-26T04:34:25.742Z,1008.31
2022-07-26T04:35:25.881Z,1008.37
2022-07-26T04:36:25.723Z,1008.39
2022-07-26T04:37:25.191Z,1008.39
2022-07-26T04:38:25.023Z,1008.43
2022-07-26T04:39:25.142Z,1008.46
2022-07-26T04:40:25.015Z,1008.45
2022-07-26T04:41:25.003Z,1008.44
2022-07-26T04:42:25.005Z,1008.40
2022-07-26T04:43:24.967Z,1008.40
2022-07-26T04:44:25.083Z,1008.40
2022-07-26T04:45:25.063Z,1008.39
2022-07-26T04:46:25.078Z,1008.45
2022-07-26T04:47:24.947Z,1008.50
2022-07-26T04:48:25.050Z,1008.48
2022-07-26T04:49:24.946Z,1008.49
2022-07-26T04:50:24.894Z,1008.50
2022-07-26T04:51:24.978Z,1008.49
2022-07-26T04:52:24.927Z,1008.47
2022-07-26T04:53:24.962Z,1008.48
2022-07-26T04:54:24.828Z,1008.44
2022-07-26T04:55:24.843Z,1008.45
2022-07-26T04:56:24.808Z,1008.48
2022-07-26T04:57:24.908Z,1008.50
2022-07-26T04:58:24.811Z,1008.48
2022-07-26T04:59:24.789Z,1008.51
2022-07-26T05:00:25.068Z,1008.51
2022-07-26T05:01:24.826Z,1008.48
2022-07-26T05:02:24.803Z,1008.53
2022-07-26T05:03:24.699Z,1008.56
2022-07-26T05:04:24.690Z,1008.48
2022-07-26T05:05:24.731Z,1008.51
2022-07-26T05:06:24.796Z,1008.50
2022-07-26T05:07:24.810Z,1008.47
2022-07-26T05:08:24.609Z,1008.51
2022-07-26T05:09:24.589Z,1008.49
2022-07-26T05:10:24.632Z,1008.54
2022-07-26T05:11:24.634Z,1008.50
2022-07-26T05:12:24.583Z,1008.55
2022-07-26T05:13:30.660Z,1008.55
2022-07-26T05:14:25.562Z,1008.58
2022-07-26T05:15:24.537Z,1008.52
2022-07-26T05:16:24.647Z,1008.56
2022-07-26T05:17:24.555Z,1008.55
2022-07-26T05:18:24.514Z,1008.55
2022-07-26T05:19:24.507Z,1008.62
2022-07-26T05:20:24.456Z,1008.58
2022-07-26T05:21:24.446Z,1008.63
2022-07-26T05:22:24.472Z,1008.61
2022-07-26T05:23:24.463Z,1008.58
2022-07-26T05:24:24.368Z,1008.62
2022-07-26T05:25:24.385Z,1008.65
2022-07-26T05:26:24.437Z,1008.63
2022-07-26T05:27:24.447Z,1008.66
2022-07-26T05:28:24.585Z,1008.67
2022-07-26T05:29:24.368Z,1008.69
2022-07-26T05:30:28.357Z,1008.68
2022-07-26T05:31:24.398Z,1008.67
2022-07-26T05:32:24.881Z,1008.71
2022-07-26T05:33:24.331Z,1008.72
2022-07-26T05:34:24.251Z,1008.73
2022-07-26T05:35:24.290Z,1008.75
2022-07-26T05:36:24.239Z,1008.68
2022-07-26T05:37:24.299Z,1008.69
2022-07-26T05:38:24.603Z,1008.66
2022-07-26T05:39:24.533Z,1008.68
2022-07-26T05:40:24.203Z,1008.67
2022-07-26T05:41:24.265Z,1008.72
2022-07-26T05:42:24.683Z,1008.68
2022-07-26T05:43:24.751Z,1008.70
2022-07-26T05:44:24.161Z,1008.76
2022-07-26T05:45:24.723Z,1008.76
2022-07-26T05:46:24.184Z,1008.71
2022-07-26T05:47:24.692Z,1008.76
2022-07-26T05:48:24.224Z,1008.71
2022-07-26T05:49:24.243Z,1008.69
2022-07-26T05:50:24.396Z,1008.75
2022-07-26T05:51:24.006Z,1008.66
2022-07-26T05:52:24.084Z,1008.71
2022-07-26T05:53:24.256Z,1008.66
2022-07-26T05:54:23.947Z,1008.70
2022-07-26T05:55:25.169Z,1008.62
2022-07-26T05:56:26.577Z,1008.64
2022-07-26T05:57:24.451Z,1008.66
2022-07-26T05:58:24.484Z,1008.65
2022-07-26T05:59:24.666Z,1008.65
2022-07-26T06:00:27.991Z,1008.73
2022-07-26T06:01:24.878Z,1008.65
2022-07-26T06:02:24.009Z,1008.71
2022-07-26T06:03:24.877Z,1008.78
2022-07-26T06:04:25.049Z,1008.77
2022-07-26T06:05:24.086Z,1008.88
2022-07-26T06:06:23.799Z,1008.90
2022-07-26T06:07:23.789Z,1008.92
2022-07-26T06:08:23.874Z,1008.94
2022-07-26T06:09:23.772Z,1008.94
2022-07-26T06:10:26.901Z,1008.91
2022-07-26T06:11:24.096Z,1008.94
2022-07-26T06:12:23.750Z,1008.99
2022-07-26T06:13:23.823Z,1009.04
2022-07-26T06:14:23.682Z,1009.07
2022-07-26T06:15:23.773Z,1009.10
2022-07-26T06:16:24.344Z,1009.20
2022-07-26T06:17:23.739Z,1009.20
2022-07-26T06:18:23.686Z,1009.12
2022-07-26T06:19:24.176Z,1009.06
2022-07-26T06:20:23.741Z,1009.01
2022-07-26T06:21:23.622Z,1009.07
2022-07-26T06:22:23.682Z,1009.12
2022-07-26T06:23:34.028Z,1009.20
2022-07-26T06:24:24.622Z,1009.18
2022-07-26T06:25:23.592Z,1009.20
2022-07-26T06:26:23.558Z,1009.17
2022-07-26T06:27:23.537Z,1009.15
2022-07-26T06:28:23.508Z,1009.19
2022-07-26T06:29:23.721Z,1009.26
2022-07-26T06:30:24.509Z,1009.25
2022-07-26T06:31:23.461Z,1009.28
2022-07-26T06:32:23.596Z,1009.29
2022-07-26T06:33:23.438Z,1009.26
2022-07-26T06:34:23.404Z,1009.27
2022-07-26T06:35:23.472Z,1009.24
2022-07-26T06:36:27.254Z,1009.29
2022-07-26T06:37:24.389Z,1009.31
2022-07-26T06:38:23.372Z,1009.27
2022-07-26T06:39:23.321Z,1009.28
2022-07-26T06:40:23.620Z,1009.29
2022-07-26T06:42:40.153Z,1009.20
2022-07-26T06:43:40.350Z,1009.24
2022-07-26T06:44:40.072Z,1009.21
2022-07-26T06:45:44.175Z,1009.23
2022-07-26T06:46:40.094Z,1009.21
2022-07-26T06:47:40.905Z,1009.20
2022-07-26T06:48:40.037Z,1009.21
2022-07-26T06:49:41.703Z,1009.23
2022-07-26T06:50:40.010Z,1009.21
2022-07-26T06:51:39.996Z,1009.20
2022-07-26T06:52:40.110Z,1009.18
2022-07-26T06:53:39.915Z,1009.19
2022-07-26T06:54:39.954Z,1009.21
2022-07-26T06:55:39.991Z,1009.17
2022-07-26T06:56:39.837Z,1009.16
2022-07-26T06:57:40.265Z,1009.18
2022-07-26T06:58:40.867Z,1009.17
2022-07-26T06:59:39.800Z,1009.15
2022-07-26T07:00:39.920Z,1009.16
2022-07-26T07:01:57.745Z,1009.13
2022-07-26T07:02:40.761Z,1009.16
2022-07-26T07:03:39.747Z,1009.17
2022-07-26T07:04:39.810Z,1009.17
2022-07-26T07:05:39.796Z,1009.16
2022-07-26T07:06:39.712Z,1009.28
2022-07-26T07:07:39.689Z,1009.34
2022-07-26T07:08:40.279Z,1009.34
2022-07-26T07:09:39.671Z,1009.36
2022-07-26T07:10:39.641Z,1009.48
2022-07-26T07:11:39.904Z,1009.48
2022-07-26T07:12:39.624Z,1009.50
2022-07-26T07:13:39.884Z,1009.55
2022-07-26T07:14:40.213Z,1009.51
2022-07-26T07:15:39.574Z,1009.58
2022-07-26T07:16:40.089Z,1009.67
2022-07-26T07:17:39.679Z,1009.66
2022-07-26T07:18:39.564Z,1009.57
2022-07-26T07:19:39.689Z,1009.77
2022-07-26T07:20:39.750Z,1009.77
2022-07-26T07:21:41.376Z,1009.74
2022-07-26T07:22:39.498Z,1009.77
2022-07-26T07:23:39.596Z,1009.78
2022-07-26T07:24:41.185Z,1009.75
2022-07-26T07:25:39.700Z,1009.76
2022-07-26T07:26:40.558Z,1009.70
2022-07-26T07:27:39.572Z,1009.63
2022-07-26T07:28:39.645Z,1009.73
2022-07-26T07:29:41.352Z,1009.84
2022-07-26T07:30:39.371Z,1009.93
2022-07-26T07:31:48.852Z,1010.00
2022-07-26T07:32:40.930Z,1009.95
2022-07-26T07:33:52.844Z,1009.84
2022-07-26T07:34:40.380Z,1009.84
2022-07-26T07:35:39.433Z,1009.80
2022-07-26T07:36:39.312Z,1009.83
2022-07-26T07:37:52.996Z,1009.83
2022-07-26T07:38:42.861Z,1009.82
2022-07-26T07:39:39.301Z,1009.79
2022-07-26T07:40:39.332Z,1009.84
2022-07-26T07:41:39.284Z,1009.83
2022-07-26T07:42:39.292Z,1009.85
2022-07-26T07:43:39.215Z,1009.84
2022-07-26T07:44:39.157Z,1009.87
2022-07-26T07:45:39.185Z,1009.87
2022-07-26T07:46:39.322Z,1009.87
2022-07-26T07:47:39.338Z,1009.92
2022-07-26T07:48:43.553Z,1009.92
2022-07-26T07:49:40.251Z,1009.94
2022-07-26T07:50:39.196Z,1009.99
2022-07-26T07:51:39.147Z,1010.12
2022-07-26T07:52:41.614Z,1010.15
2022-07-26T07:53:39.199Z,1010.10
2022-07-26T07:54:39.061Z,1010.21
2022-07-26T07:55:41.006Z,1010.29
2022-07-26T07:56:40.091Z,1010.36
2022-07-26T07:57:39.008Z,1010.31
2022-07-26T07:58:39.039Z,1010.31
2022-07-26T07:59:39.440Z,1010.28
2022-07-26T08:00:39.163Z,1010.28
2022-07-26T08:01:40.074Z,1010.37
2022-07-26T08:02:39.110Z,1010.33
2022-07-26T08:03:39.397Z,1010.38
2022-07-26T08:04:38.978Z,1010.44
2022-07-26T08:05:40.442Z,1010.34
2022-07-26T08:06:40.828Z,1010.40
2022-07-26T08:07:39.555Z,1010.47
2022-07-26T08:08:38.836Z,1010.53
2022-07-26T08:09:42.837Z,1010.49
2022-07-26T08:10:43.612Z,1010.68
2022-07-26T08:11:41.860Z,1010.56
2022-07-26T08:12:38.805Z,1010.53
2022-07-26T08:13:38.754Z,1010.53
2022-07-26T08:14:38.781Z,1010.51
2022-07-26T08:15:39.267Z,1010.49
2022-07-26T08:16:38.905Z,1010.53
2022-07-26T08:17:41.917Z,1010.63
2022-07-26T08:18:53.414Z,1010.51
2022-07-26T08:19:42.285Z,1010.52
2022-07-26T08:20:38.759Z,1010.41
2022-07-26T08:21:38.781Z,1010.44
2022-07-26T08:22:38.824Z,1010.38
2022-07-26T08:23:38.726Z,1010.45
2022-07-26T08:24:38.907Z,1010.48
2022-07-26T08:25:50.092Z,1010.43
2022-07-26T08:26:39.621Z,1010.44
2022-07-26T08:27:41.202Z,1010.53
2022-07-26T08:28:47.481Z,1010.54
2022-07-26T08:29:39.531Z,1010.61
2022-07-26T08:30:38.550Z,1010.56
2022-07-26T08:31:38.625Z,1010.66
2022-07-26T08:32:38.622Z,1010.67
2022-07-26T08:33:39.365Z,1010.74
2022-07-26T08:34:38.553Z,1010.68
2022-07-26T08:35:38.510Z,1010.67
2022-07-26T08:36:49.622Z,1010.75
2022-07-26T08:37:39.439Z,1010.75
2022-07-26T08:38:38.634Z,1010.74
2022-07-26T08:39:38.475Z,1010.78
2022-07-26T08:40:38.446Z,1010.83
2022-07-26T08:41:38.729Z,1010.84
2022-07-26T08:42:39.039Z,1010.85
2022-07-26T08:43:46.779Z,1010.93
2022-07-26T08:44:39.526Z,1010.85
2022-07-26T08:45:38.377Z,1010.90
2022-07-26T08:46:38.465Z,1010.87
2022-07-26T08:47:55.183Z,1010.95
2022-07-26T08:48:39.378Z,1010.92
2022-07-26T08:49:38.319Z,1010.94
2022-07-26T08:50:38.353Z,1011.00
2022-07-26T08:51:38.270Z,1011.06
2022-07-26T08:52:38.344Z,1011.00
2022-07-26T08:53:38.235Z,1011.06
2022-07-26T08:54:38.194Z,1011.05
2022-07-26T08:56:04.261Z,1011.08
2022-07-26T08:56:39.192Z,1011.17
2022-07-26T08:57:38.182Z,1011.12
2022-07-26T08:58:38.231Z,1011.13
2022-07-26T08:59:38.160Z,1011.15
2022-07-26T09:00:38.189Z,1011.15
2022-07-26T09:01:38.135Z,1011.09
2022-07-26T09:02:38.514Z,1011.14
2022-07-26T09:03:38.299Z,1011.09
2022-07-26T09:04:43.840Z,1011.14
2022-07-26T09:05:39.216Z,1011.20
2022-07-26T09:06:38.056Z,1011.28
2022-07-26T09:07:38.142Z,1011.23
2022-07-26T09:08:38.047Z,1011.41
2022-07-26T09:09:38.057Z,1011.31
2022-07-26T09:10:39.319Z,1011.35
2022-07-26T09:11:38.027Z,1011.24
2022-07-26T09:12:37.963Z,1011.17
2022-07-26T09:13:38.128Z,1011.30
2022-07-26T09:14:38.017Z,1011.22
2022-07-26T09:15:37.980Z,1011.24
2022-07-26T09:16:40.102Z,1011.30
2022-07-26T09:17:37.924Z,1011.34
2022-07-26T09:18:37.869Z,1011.24
2022-07-26T09:19:37.943Z,1011.22
2022-07-26T09:20:38.021Z,1011.31
2022-07-26T09:21:37.848Z,1011.34
2022-07-26T09:22:37.832Z,1011.39
2022-07-26T09:23:37.848Z,1011.48
2022-07-26T09:24:38.060Z,1011.43
2022-07-26T09:25:37.976Z,1011.45
2022-07-26T09:26:38.382Z,1011.48
2022-07-26T09:27:39.684Z,1011.54
2022-07-26T09:28:37.770Z,1011.44
2022-07-26T09:29:38.866Z,1011.50
2022-07-26T09:30:37.769Z,1011.44
2022-07-26T09:31:37.945Z,1011.53
2022-07-26T09:32:38.009Z,1011.60
2022-07-26T09:33:37.721Z,1011.54
2022-07-26T09:34:48.064Z,1011.58
2022-07-26T09:35:49.730Z,1011.64
2022-07-26T09:36:38.791Z,1011.66
2022-07-26T09:37:37.648Z,1011.72
2022-07-26T09:38:37.966Z,1011.74
2022-07-26T09:39:37.927Z,1011.71
2022-07-26T09:40:38.063Z,1011.79
2022-07-26T09:41:38.029Z,1011.79
2022-07-26T09:42:37.630Z,1011.85
2022-07-26T09:43:37.625Z,1011.86
2022-07-26T09:44:37.584Z,1011.90
2022-07-26T09:45:38.794Z,1011.92
2022-07-26T09:46:37.890Z,1011.94
2022-07-26T09:47:38.995Z,1012.01
2022-07-26T09:49:09.476Z,1011.96
2022-07-26T09:49:40.146Z,1011.95
2022-07-26T09:50:37.674Z,1012.08
2022-07-26T09:51:37.418Z,1011.97
2022-07-26T09:52:37.435Z,1011.95
2022-07-26T09:53:37.900Z,1011.98
2022-07-26T09:54:37.653Z,1012.04
2022-07-26T09:55:44.584Z,1012.01
2022-07-26T09:56:38.405Z,1012.07
2022-07-26T09:57:37.386Z,1012.00
2022-07-26T09:58:37.350Z,1011.96
2022-07-26T09:59:37.388Z,1012.03
2022-07-26T10:00:37.326Z,1012.03
2022-07-26T10:01:37.330Z,1012.08
2022-07-26T10:02:37.297Z,1012.05
2022-07-26T10:03:37.324Z,1011.93
2022-07-26T10:04:37.280Z,1011.96
2022-07-26T10:05:37.722Z,1011.95
2022-07-26T10:06:37.235Z,1012.05
2022-07-26T10:07:37.261Z,1011.98
2022-07-26T10:08:37.213Z,1012.03
2022-07-26T10:09:37.267Z,1012.07
2022-07-26T10:10:37.172Z,1012.08
2022-07-26T10:11:37.153Z,1012.03
2022-07-26T10:12:37.153Z,1012.03
2022-07-26T10:13:37.155Z,1012.00
2022-07-26T10:14:37.147Z,1012.07
2022-07-26T10:15:37.154Z,1012.06
2022-07-26T10:16:37.256Z,1012.05
2022-07-26T10:17:37.057Z,1012.07
2022-07-26T10:18:37.301Z,1012.05
2022-07-26T10:19:41.224Z,1011.98
2022-07-26T10:20:38.080Z,1012.00
2022-07-26T10:21:37.105Z,1012.01
2022-07-26T10:22:36.998Z,1012.01
2022-07-26T10:23:37.019Z,1011.94
2022-07-26T10:24:37.120Z,1012.05
2022-07-26T10:25:36.976Z,1011.97
2022-07-26T10:26:37.043Z,1012.05
2022-07-26T10:27:36.999Z,1012.02
2022-07-26T10:28:37.009Z,1012.04
2022-07-26T10:29:37.009Z,1011.98
2022-07-26T10:30:36.887Z,1012.12
2022-07-26T10:31:37.115Z,1012.09
2022-07-26T10:32:36.912Z,1012.16
2022-07-26T10:33:37.019Z,1012.04
2022-07-26T10:34:36.891Z,1012.11
2022-07-26T10:35:36.982Z,1012.17
2022-07-26T10:36:36.842Z,1012.19
2022-07-26T10:37:36.934Z,1012.11
2022-07-26T10:38:37.968Z,1012.16
2022-07-26T10:39:36.835Z,1012.17
2022-07-26T10:40:36.854Z,1012.22
2022-07-26T10:41:36.818Z,1012.16
2022-07-26T10:42:36.848Z,1012.24
2022-07-26T10:43:41.471Z,1012.16
2022-07-26T10:44:37.751Z,1012.09
2022-07-26T10:45:36.697Z,1012.14
2022-07-26T10:48:04.252Z,1012.18
2022-07-26T10:48:36.278Z,1012.14
2022-07-26T10:49:09.082Z,1012.19
2022-07-26T10:50:09.175Z,1012.12
2022-07-26T10:51:08.978Z,1012.22
2022-07-26T10:52:08.899Z,1012.15
2022-07-26T10:53:08.861Z,1012.24
2022-07-26T10:54:09.388Z,1012.11
2022-07-26T10:55:08.861Z,1012.15
2022-07-26T10:56:08.925Z,1012.08
2022-07-26T10:57:08.846Z,1012.16
2022-07-26T10:58:08.858Z,1012.09
2022-07-26T10:59:08.790Z,1012.24
2022-07-26T11:00:08.818Z,1012.26
2022-07-26T11:01:08.953Z,1012.23
2022-07-26T11:02:08.813Z,1012.24
2022-07-26T11:03:08.841Z,1012.17
2022-07-26T11:04:09.955Z,1012.19
2022-07-26T11:05:08.720Z,1012.23
2022-07-26T11:06:08.759Z,1012.26
2022-07-26T11:07:08.732Z,1012.33
2022-07-26T11:08:08.713Z,1012.26
2022-07-26T11:09:08.657Z,1012.32
2022-07-26T11:10:08.750Z,1012.27
2022-07-26T11:11:08.721Z,1012.26
2022-07-26T11:12:08.662Z,1012.32
2022-07-26T11:13:08.602Z,1012.33
2022-07-26T11:14:09.111Z,1012.37
2022-07-26T11:15:08.626Z,1012.46
2022-07-26T11:16:08.678Z,1012.44
2022-07-26T11:17:08.719Z,1012.44
2022-07-26T11:18:08.655Z,1012.51
2022-07-26T11:19:08.541Z,1012.42
2022-07-26T11:20:08.678Z,1012.52
2022-07-26T11:21:08.539Z,1012.38
2022-07-26T11:22:08.616Z,1012.41
2022-07-26T11:23:08.520Z,1012.36
2022-07-26T11:24:08.818Z,1012.44
2022-07-26T11:25:08.453Z,1012.60
2022-07-26T11:26:08.438Z,1012.66
2022-07-26T11:27:08.459Z,1012.48
2022-07-26T11:28:08.457Z,1012.53
2022-07-26T11:29:08.384Z,1012.52
2022-07-26T11:30:08.469Z,1012.55
2022-07-26T11:31:08.489Z,1012.50
2022-07-26T11:32:16.415Z,1012.48
2022-07-26T11:33:09.386Z,1012.51
2022-07-26T11:34:09.337Z,1012.47
2022-07-26T11:35:08.341Z,1012.58
2022-07-26T11:36:08.387Z,1012.52
2022-07-26T11:37:08.432Z,1012.55
2022-07-26T11:38:12.014Z,1012.46
2022-07-26T11:39:08.290Z,1012.47
2022-07-26T11:40:08.463Z,1012.49
2022-07-26T11:41:08.261Z,1012.54
2022-07-26T11:42:08.263Z,1012.63
2022-07-26T11:43:08.357Z,1012.65
2022-07-26T11:44:08.374Z,1012.57
2022-07-26T11:45:08.279Z,1012.70
2022-07-26T11:46:08.299Z,1012.73
2022-07-26T11:47:08.237Z,1012.60
2022-07-26T11:48:08.370Z,1012.71
2022-07-26T11:49:08.254Z,1012.73
2022-07-26T11:50:22.139Z,1012.73
2022-07-26T11:51:09.223Z,1012.64
2022-07-26T11:52:08.266Z,1012.66
2022-07-26T11:53:08.496Z,1012.77
2022-07-26T11:54:08.565Z,1012.66
2022-07-26T11:55:08.222Z,1012.64
2022-07-26T11:56:08.423Z,1012.62
2022-07-26T11:57:08.168Z,1012.65
2022-07-26T11:58:08.075Z,1012.76
2022-07-26T11:59:08.074Z,1012.76
2022-07-26T12:00:08.097Z,1012.72
2022-07-26T12:01:08.155Z,1012.76
2022-07-26T12:02:08.095Z,1012.75
2022-07-26T12:03:08.051Z,1012.72
2022-07-26T12:04:08.537Z,1012.77
2022-07-26T12:05:08.092Z,1012.71
2022-07-26T12:06:08.095Z,1012.73
2022-07-26T12:07:08.215Z,1012.70
2022-07-26T12:08:08.079Z,1012.64
2022-07-26T12:09:08.048Z,1012.61
2022-07-26T12:10:07.897Z,1012.65
2022-07-26T12:11:07.899Z,1012.63
2022-07-26T12:12:07.949Z,1012.72
2022-07-26T12:13:07.873Z,1012.73
2022-07-26T12:14:08.034Z,1012.72
2022-07-26T12:15:07.914Z,1012.70
2022-07-26T12:16:08.063Z,1012.77
2022-07-26T12:17:07.879Z,1012.80
2022-07-26T12:18:07.865Z,1012.86
2022-07-26T12:19:07.894Z,1012.91
2022-07-26T12:20:07.752Z,1012.85
2022-07-26T12:21:08.339Z,1012.80
2022-07-26T12:22:07.684Z,1012.84
2022-07-26T12:23:07.695Z,1012.81
2022-07-26T12:24:07.974Z,1012.84
2022-07-26T12:25:07.692Z,1012.95
2022-07-26T12:26:10.029Z,1012.87
2022-07-26T12:27:07.700Z,1012.93
2022-07-26T12:28:07.757Z,1012.90
2022-07-26T12:29:07.646Z,1012.84
2022-07-26T12:30:07.799Z,1012.87
2022-07-26T12:31:07.829Z,1012.89
2022-07-26T12:32:12.309Z,1012.86
2022-07-26T12:33:07.665Z,1012.89
2022-07-26T12:34:07.703Z,1012.93
2022-07-26T12:35:07.630Z,1012.93
2022-07-26T12:36:07.812Z,1012.96
2022-07-26T12:37:07.500Z,1013.10
2022-07-26T12:38:07.626Z,1012.95
2022-07-26T12:39:07.618Z,1012.94
2022-07-26T12:40:07.503Z,1013.04
2022-07-26T12:41:07.472Z,1013.05
2022-07-26T12:42:08.547Z,1013.06
2022-07-26T12:43:07.451Z,1013.05
2022-07-26T12:44:07.458Z,1013.01
2022-07-26T12:45:09.098Z,1013.00
2022-07-26T12:46:07.438Z,1012.94
2022-07-26T12:47:07.467Z,1012.99
2022-07-26T12:48:07.379Z,1013.03
2022-07-26T12:49:07.452Z,1012.99